sensor_id;sensor_type;location;lat;lon;timestamp;temperature;humidity
41592;DHT22;28026;48.562;14.440;2022-09-19T00:00:41;5.80;99.90
41592;DHT22;28026;48.562;14.440;2022-09-19T00:03:14;5.90;99.90
41592;DHT22;28026;48.562;14.440;2022-09-19T00:05:44;5.80;99.90
41592;DHT22;28026;48.562;14.440;2022-09-19T00:08:15;5.80;99.90
41592;DHT22;28026;48.562;14.440;2022-09-19T00:10:46;5.90;99.90
41592;DHT22;28026;48.562;14.440;2022-09-19T00:13:17;5.80;99.90
41592;DHT22;28026;48.562;14.440;2022-09-19T00:15:48;5.70;99.90
41592;DHT22;28026;48.562;14.440;2022-09-19T00:18:20;5.80;99.90
41592;DHT22;28026;48.562;14.440;2022-09-19T00:20:51;5.70;99.90
41592;DHT22;28026;48.562;14.440;2022-09-19T00:23:22;5.80;99.90
41592;DHT22;28026;48.562;14.440;2022-09-19T00:26:12;5.80;99.90
41592;DHT22;28026;48.562;14.440;2022-09-19T00:28:47;5.80;99.90
41592;DHT22;28026;48.562;14.440;2022-09-19T00:31:19;5.80;99.90
41592;DHT22;28026;48.562;14.440;2022-09-19T00:33:50;5.70;99.90
41592;DHT22;28026;48.562;14.440;2022-09-19T00:36:23;5.70;99.90
41592;DHT22;28026;48.562;14.440;2022-09-19T00:38:54;5.70;99.90
41592;DHT22;28026;48.562;14.440;2022-09-19T00:41:26;5.70;99.90
41592;DHT22;28026;48.562;14.440;2022-09-19T00:49:36;5.70;99.90
41592;DHT22;28026;48.562;14.440;2022-09-19T00:52:15;5.80;99.90
41592;DHT22;28026;48.562;14.440;2022-09-19T00:54:53;5.70;99.90
41592;DHT22;28026;48.562;14.440;2022-09-19T00:57:30;5.80;99.90
41592;DHT22;28026;48.562;14.440;2022-09-19T01:00:15;5.80;99.90
41592;DHT22;28026;48.562;14.440;2022-09-19T01:02:45;5.80;99.90
41592;DHT22;28026;48.562;14.440;2022-09-19T01:05:22;5.80;99.90
41592;DHT22;28026;48.562;14.440;2022-09-19T01:16:59;5.90;99.90
41592;DHT22;28026;48.562;14.440;2022-09-19T01:26:03;5.90;99.90
41592;DHT22;28026;48.562;14.440;2022-09-19T01:29:25;5.90;99.90
41592;DHT22;28026;48.562;14.440;2022-09-19T01:32:07;5.90;99.90
41592;DHT22;28026;48.562;14.440;2022-09-19T01:34:49;6.00;99.90
41592;DHT22;28026;48.562;14.440;2022-09-19T01:37:29;6.00;99.90
41592;DHT22;28026;48.562;14.440;2022-09-19T01:40:06;6.00;99.90
41592;DHT22;28026;48.562;14.440;2022-09-19T01:42:50;6.00;99.90
41592;DHT22;28026;48.562;14.440;2022-09-19T01:45:28;6.00;99.90
41592;DHT22;28026;48.562;14.440;2022-09-19T01:48:12;6.00;99.90
41592;DHT22;28026;48.562;14.440;2022-09-19T01:51:15;6.00;99.90
41592;DHT22;28026;48.562;14.440;2022-09-19T02:00:23;6.00;99.90
41592;DHT22;28026;48.562;14.440;2022-09-19T02:05:58;5.80;99.90
41592;DHT22;28026;48.562;14.440;2022-09-19T02:11:40;5.80;99.90
41592;DHT22;28026;48.562;14.440;2022-09-19T02:14:13;5.80;99.90
41592;DHT22;28026;48.562;14.440;2022-09-19T02:16:53;5.80;99.90
41592;DHT22;28026;48.562;14.440;2022-09-19T02:19:35;5.70;99.90
41592;DHT22;28026;48.562;14.440;2022-09-19T02:22:16;5.70;99.90
41592;DHT22;28026;48.562;14.440;2022-09-19T02:24:59;5.60;99.90
41592;DHT22;28026;48.562;14.440;2022-09-19T02:27:42;5.70;99.90
41592;DHT22;28026;48.562;14.440;2022-09-19T02:30:20;5.70;99.90
41592;DHT22;28026;48.562;14.440;2022-09-19T02:32:52;5.60;99.90
41592;DHT22;28026;48.562;14.440;2022-09-19T02:35:25;5.40;99.90
41592;DHT22;28026;48.562;14.440;2022-09-19T02:38:37;5.40;99.90
41592;DHT22;28026;48.562;14.440;2022-09-19T02:41:17;5.30;99.90
41592;DHT22;28026;48.562;14.440;2022-09-19T02:50:07;5.10;99.90
41592;DHT22;28026;48.562;14.440;2022-09-19T02:53:00;5.10;99.90
41592;DHT22;28026;48.562;14.440;2022-09-19T02:55:41;5.10;99.90
41592;DHT22;28026;48.562;14.440;2022-09-19T02:58:20;5.10;99.90
41592;DHT22;28026;48.562;14.440;2022-09-19T03:00:55;5.10;99.90
41592;DHT22;28026;48.562;14.440;2022-09-19T03:03:35;5.10;99.90
41592;DHT22;28026;48.562;14.440;2022-09-19T03:06:36;5.00;99.90
41592;DHT22;28026;48.562;14.440;2022-09-19T03:09:27;5.00;99.90
41592;DHT22;28026;48.562;14.440;2022-09-19T03:12:47;5.10;99.90
41592;DHT22;28026;48.562;14.440;2022-09-19T03:15:07;4.90;99.90
41592;DHT22;28026;48.562;14.440;2022-09-19T03:17:40;4.80;99.90
41592;DHT22;28026;48.562;14.440;2022-09-19T03:20:20;4.80;99.90
41592;DHT22;28026;48.562;14.440;2022-09-19T03:22:52;4.80;99.90
41592;DHT22;28026;48.562;14.440;2022-09-19T03:25:26;4.80;99.90
41592;DHT22;28026;48.562;14.440;2022-09-19T03:27:57;4.80;99.90
41592;DHT22;28026;48.562;14.440;2022-09-19T03:30:28;4.70;99.90
41592;DHT22;28026;48.562;14.440;2022-09-19T03:32:59;4.60;99.90
41592;DHT22;28026;48.562;14.440;2022-09-19T03:35:30;4.60;99.90
41592;DHT22;28026;48.562;14.440;2022-09-19T03:38:01;4.60;99.90
41592;DHT22;28026;48.562;14.440;2022-09-19T03:40:31;4.60;99.90
41592;DHT22;28026;48.562;14.440;2022-09-19T03:43:03;4.70;99.90
41592;DHT22;28026;48.562;14.440;2022-09-19T03:45:34;4.60;99.90
41592;DHT22;28026;48.562;14.440;2022-09-19T03:48:05;4.70;99.90
41592;DHT22;28026;48.562;14.440;2022-09-19T03:50:36;4.60;99.90
41592;DHT22;28026;48.562;14.440;2022-09-19T03:53:07;4.60;99.90
41592;DHT22;28026;48.562;14.440;2022-09-19T03:55:39;4.70;99.90
41592;DHT22;28026;48.562;14.440;2022-09-19T03:58:12;4.70;99.90
41592;DHT22;28026;48.562;14.440;2022-09-19T04:00:43;4.70;99.90
41592;DHT22;28026;48.562;14.440;2022-09-19T04:03:14;4.60;99.90
41592;DHT22;28026;48.562;14.440;2022-09-19T04:05:45;4.60;99.90
41592;DHT22;28026;48.562;14.440;2022-09-19T04:08:16;4.60;99.90
41592;DHT22;28026;48.562;14.440;2022-09-19T04:10:47;4.60;99.90
41592;DHT22;28026;48.562;14.440;2022-09-19T04:13:18;4.70;99.90
41592;DHT22;28026;48.562;14.440;2022-09-19T04:15:51;4.70;99.90
41592;DHT22;28026;48.562;14.440;2022-09-19T04:18:22;4.80;99.90
41592;DHT22;28026;48.562;14.440;2022-09-19T04:20:52;4.80;99.90
41592;DHT22;28026;48.562;14.440;2022-09-19T04:23:24;4.80;99.90
41592;DHT22;28026;48.562;14.440;2022-09-19T04:25:56;4.70;99.90
41592;DHT22;28026;48.562;14.440;2022-09-19T04:28:28;4.70;99.90
41592;DHT22;28026;48.562;14.440;2022-09-19T04:30:58;4.80;99.90
41592;DHT22;28026;48.562;14.440;2022-09-19T04:33:29;4.80;99.90
41592;DHT22;28026;48.562;14.440;2022-09-19T04:36:01;4.70;99.90
41592;DHT22;28026;48.562;14.440;2022-09-19T04:38:36;4.70;99.90
41592;DHT22;28026;48.562;14.440;2022-09-19T04:41:07;4.80;99.90
41592;DHT22;28026;48.562;14.440;2022-09-19T04:43:38;4.80;99.90
41592;DHT22;28026;48.562;14.440;2022-09-19T04:46:09;4.80;99.90
41592;DHT22;28026;48.562;14.440;2022-09-19T04:48:40;4.80;99.90
41592;DHT22;28026;48.562;14.440;2022-09-19T04:51:11;4.70;99.90
41592;DHT22;28026;48.562;14.440;2022-09-19T04:53:42;4.80;99.90
41592;DHT22;28026;48.562;14.440;2022-09-19T04:56:13;4.80;99.90
41592;DHT22;28026;48.562;14.440;2022-09-19T04:58:44;4.80;99.90
41592;DHT22;28026;48.562;14.440;2022-09-19T05:01:15;4.80;99.90
41592;DHT22;28026;48.562;14.440;2022-09-19T05:03:46;4.80;99.90
41592;DHT22;28026;48.562;14.440;2022-09-19T05:06:18;5.10;99.90
41592;DHT22;28026;48.562;14.440;2022-09-19T05:08:49;5.10;99.90
41592;DHT22;28026;48.562;14.440;2022-09-19T05:11:21;5.00;99.90
41592;DHT22;28026;48.562;14.440;2022-09-19T05:13:52;4.90;99.90
41592;DHT22;28026;48.562;14.440;2022-09-19T05:16:23;5.00;99.90
41592;DHT22;28026;48.562;14.440;2022-09-19T05:18:54;4.90;99.90
41592;DHT22;28026;48.562;14.440;2022-09-19T05:21:25;4.90;99.90
41592;DHT22;28026;48.562;14.440;2022-09-19T05:23:57;5.00;99.90
41592;DHT22;28026;48.562;14.440;2022-09-19T05:26:27;5.00;99.90
41592;DHT22;28026;48.562;14.440;2022-09-19T05:28:58;5.00;99.90
41592;DHT22;28026;48.562;14.440;2022-09-19T05:31:30;5.00;99.90
41592;DHT22;28026;48.562;14.440;2022-09-19T05:34:01;5.10;99.90
41592;DHT22;28026;48.562;14.440;2022-09-19T05:36:32;5.10;99.90
41592;DHT22;28026;48.562;14.440;2022-09-19T05:39:03;5.00;99.90
41592;DHT22;28026;48.562;14.440;2022-09-19T05:41:34;5.00;99.90
41592;DHT22;28026;48.562;14.440;2022-09-19T05:44:07;5.10;99.90
41592;DHT22;28026;48.562;14.440;2022-09-19T05:46:37;5.10;99.90
41592;DHT22;28026;48.562;14.440;2022-09-19T05:49:09;5.10;99.90
41592;DHT22;28026;48.562;14.440;2022-09-19T05:51:40;5.00;99.90
41592;DHT22;28026;48.562;14.440;2022-09-19T05:54:10;5.00;99.90
41592;DHT22;28026;48.562;14.440;2022-09-19T05:56:41;5.00;99.90
41592;DHT22;28026;48.562;14.440;2022-09-19T05:59:12;5.00;99.90
41592;DHT22;28026;48.562;14.440;2022-09-19T06:01:43;5.00;99.90
41592;DHT22;28026;48.562;14.440;2022-09-19T06:04:14;5.00;99.90
41592;DHT22;28026;48.562;14.440;2022-09-19T06:06:45;5.00;99.90
41592;DHT22;28026;48.562;14.440;2022-09-19T06:09:16;5.00;99.90
41592;DHT22;28026;48.562;14.440;2022-09-19T06:11:46;5.00;99.90
41592;DHT22;28026;48.562;14.440;2022-09-19T06:14:17;5.00;99.90
41592;DHT22;28026;48.562;14.440;2022-09-19T06:16:53;4.90;99.90
41592;DHT22;28026;48.562;14.440;2022-09-19T06:19:24;5.00;99.90
41592;DHT22;28026;48.562;14.440;2022-09-19T06:21:56;5.00;99.90
41592;DHT22;28026;48.562;14.440;2022-09-19T06:24:28;5.00;99.90
41592;DHT22;28026;48.562;14.440;2022-09-19T06:26:58;5.10;99.90
41592;DHT22;28026;48.562;14.440;2022-09-19T06:29:29;5.00;99.90
41592;DHT22;28026;48.562;14.440;2022-09-19T06:32:01;5.00;99.90
41592;DHT22;28026;48.562;14.440;2022-09-19T06:34:32;5.00;99.90
41592;DHT22;28026;48.562;14.440;2022-09-19T06:37:03;5.10;99.90
41592;DHT22;28026;48.562;14.440;2022-09-19T06:39:34;5.00;99.90
41592;DHT22;28026;48.562;14.440;2022-09-19T06:42:05;5.00;99.90
41592;DHT22;28026;48.562;14.440;2022-09-19T06:44:36;5.00;99.90
41592;DHT22;28026;48.562;14.440;2022-09-19T06:47:07;5.00;99.90
41592;DHT22;28026;48.562;14.440;2022-09-19T06:49:37;5.00;99.90
41592;DHT22;28026;48.562;14.440;2022-09-19T06:52:08;4.90;99.90
41592;DHT22;28026;48.562;14.440;2022-09-19T06:54:39;5.00;99.90
41592;DHT22;28026;48.562;14.440;2022-09-19T06:57:10;5.00;99.90
41592;DHT22;28026;48.562;14.440;2022-09-19T06:59:41;5.10;99.90
41592;DHT22;28026;48.562;14.440;2022-09-19T07:02:12;5.00;99.90
41592;DHT22;28026;48.562;14.440;2022-09-19T07:04:44;5.00;99.90
41592;DHT22;28026;48.562;14.440;2022-09-19T07:07:15;5.00;99.90
41592;DHT22;28026;48.562;14.440;2022-09-19T07:09:45;5.00;99.90
41592;DHT22;28026;48.562;14.440;2022-09-19T07:12:16;5.20;99.90
41592;DHT22;28026;48.562;14.440;2022-09-19T07:14:47;5.20;99.90
41592;DHT22;28026;48.562;14.440;2022-09-19T07:17:18;5.20;99.90
41592;DHT22;28026;48.562;14.440;2022-09-19T07:19:48;5.30;99.90
41592;DHT22;28026;48.562;14.440;2022-09-19T07:22:21;5.40;99.90
41592;DHT22;28026;48.562;14.440;2022-09-19T07:24:52;5.40;99.90
41592;DHT22;28026;48.562;14.440;2022-09-19T07:27:25;5.50;99.90
41592;DHT22;28026;48.562;14.440;2022-09-19T07:29:56;5.60;99.90
41592;DHT22;28026;48.562;14.440;2022-09-19T07:32:27;5.60;99.90
41592;DHT22;28026;48.562;14.440;2022-09-19T07:35:00;5.70;99.90
41592;DHT22;28026;48.562;14.440;2022-09-19T07:37:31;5.70;99.90
41592;DHT22;28026;48.562;14.440;2022-09-19T07:40:02;5.80;99.90
41592;DHT22;28026;48.562;14.440;2022-09-19T07:42:33;6.10;99.90
41592;DHT22;28026;48.562;14.440;2022-09-19T07:45:04;6.20;99.90
41592;DHT22;28026;48.562;14.440;2022-09-19T07:47:40;6.40;99.90
41592;DHT22;28026;48.562;14.440;2022-09-19T07:50:14;6.60;99.90
41592;DHT22;28026;48.562;14.440;2022-09-19T07:52:56;6.80;99.90
41592;DHT22;28026;48.562;14.440;2022-09-19T07:55:32;6.90;99.90
41592;DHT22;28026;48.562;14.440;2022-09-19T07:58:05;6.80;99.90
41592;DHT22;28026;48.562;14.440;2022-09-19T08:00:36;6.70;99.90
41592;DHT22;28026;48.562;14.440;2022-09-19T08:03:09;6.80;99.90
41592;DHT22;28026;48.562;14.440;2022-09-19T08:05:43;6.80;99.90
41592;DHT22;28026;48.562;14.440;2022-09-19T08:08:18;6.70;99.90
41592;DHT22;28026;48.562;14.440;2022-09-19T08:10:57;6.80;99.90
41592;DHT22;28026;48.562;14.440;2022-09-19T08:13:31;6.90;99.90
41592;DHT22;28026;48.562;14.440;2022-09-19T08:16:02;6.90;99.90
41592;DHT22;28026;48.562;14.440;2022-09-19T08:18:33;6.90;99.90
41592;DHT22;28026;48.562;14.440;2022-09-19T08:21:04;7.10;99.90
41592;DHT22;28026;48.562;14.440;2022-09-19T08:23:35;7.40;99.90
41592;DHT22;28026;48.562;14.440;2022-09-19T08:26:06;7.90;99.90
41592;DHT22;28026;48.562;14.440;2022-09-19T08:28:37;7.90;99.90
41592;DHT22;28026;48.562;14.440;2022-09-19T08:31:09;8.10;99.90
41592;DHT22;28026;48.562;14.440;2022-09-19T08:33:40;8.50;99.90
41592;DHT22;28026;48.562;14.440;2022-09-19T08:36:10;8.50;99.90
41592;DHT22;28026;48.562;14.440;2022-09-19T08:38:42;8.30;99.90
41592;DHT22;28026;48.562;14.440;2022-09-19T08:47:19;7.70;99.90
41592;DHT22;28026;48.562;14.440;2022-09-19T08:52:40;8.00;99.90
41592;DHT22;28026;48.562;14.440;2022-09-19T08:55:17;8.00;99.90
41592;DHT22;28026;48.562;14.440;2022-09-19T08:57:57;8.30;99.90
41592;DHT22;28026;48.562;14.440;2022-09-19T09:00:42;8.60;99.90
41592;DHT22;28026;48.562;14.440;2022-09-19T09:03:21;8.50;99.90
41592;DHT22;28026;48.562;14.440;2022-09-19T09:06:18;8.40;99.90
41592;DHT22;28026;48.562;14.440;2022-09-19T09:09:24;8.40;99.90
41592;DHT22;28026;48.562;14.440;2022-09-19T09:24:33;8.50;99.90
41592;DHT22;28026;48.562;14.440;2022-09-19T09:27:19;8.50;99.90
41592;DHT22;28026;48.562;14.440;2022-09-19T09:30:13;8.20;99.90
41592;DHT22;28026;48.562;14.440;2022-09-19T09:32:49;8.30;99.90
41592;DHT22;28026;48.562;14.440;2022-09-19T09:35:35;8.20;99.90
41592;DHT22;28026;48.562;14.440;2022-09-19T09:41:01;8.10;99.90
41592;DHT22;28026;48.562;14.440;2022-09-19T09:53:23;8.10;99.90
41592;DHT22;28026;48.562;14.440;2022-09-19T09:56:34;7.90;99.90
41592;DHT22;28026;48.562;14.440;2022-09-19T09:59:32;7.80;99.90
41592;DHT22;28026;48.562;14.440;2022-09-19T10:02:51;8.10;99.90
41592;DHT22;28026;48.562;14.440;2022-09-19T10:05:54;8.10;99.90
41592;DHT22;28026;48.562;14.440;2022-09-19T10:08:34;8.20;99.90
41592;DHT22;28026;48.562;14.440;2022-09-19T10:11:43;8.00;99.90
41592;DHT22;28026;48.562;14.440;2022-09-19T10:14:44;8.10;99.90
41592;DHT22;28026;48.562;14.440;2022-09-19T10:17:17;8.00;99.90
41592;DHT22;28026;48.562;14.440;2022-09-19T10:19:54;7.90;99.90
41592;DHT22;28026;48.562;14.440;2022-09-19T10:22:33;7.80;99.90
41592;DHT22;28026;48.562;14.440;2022-09-19T10:25:07;7.80;99.90
41592;DHT22;28026;48.562;14.440;2022-09-19T10:27:41;7.90;99.90
41592;DHT22;28026;48.562;14.440;2022-09-19T10:30:22;8.00;99.90
41592;DHT22;28026;48.562;14.440;2022-09-19T10:32:57;8.20;99.90
41592;DHT22;28026;48.562;14.440;2022-09-19T10:35:53;8.20;99.90
41592;DHT22;28026;48.562;14.440;2022-09-19T10:38:26;8.20;99.90
41592;DHT22;28026;48.562;14.440;2022-09-19T10:40:58;8.10;99.90
41592;DHT22;28026;48.562;14.440;2022-09-19T10:43:33;8.20;99.90
41592;DHT22;28026;48.562;14.440;2022-09-19T10:46:20;8.10;99.90
41592;DHT22;28026;48.562;14.440;2022-09-19T10:48:58;8.10;99.90
41592;DHT22;28026;48.562;14.440;2022-09-19T10:51:36;8.10;99.90
41592;DHT22;28026;48.562;14.440;2022-09-19T10:54:48;8.20;99.90
41592;DHT22;28026;48.562;14.440;2022-09-19T11:00:20;8.40;99.90
41592;DHT22;28026;48.562;14.440;2022-09-19T11:02:54;8.40;99.90
41592;DHT22;28026;48.562;14.440;2022-09-19T11:08:41;8.40;99.90
41592;DHT22;28026;48.562;14.440;2022-09-19T11:14:17;8.30;99.90
41592;DHT22;28026;48.562;14.440;2022-09-19T11:25:36;8.10;99.90
41592;DHT22;28026;48.562;14.440;2022-09-19T11:28:23;8.20;99.90
41592;DHT22;28026;48.562;14.440;2022-09-19T11:31:51;8.10;99.90
41592;DHT22;28026;48.562;14.440;2022-09-19T11:34:49;8.00;99.90
41592;DHT22;28026;48.562;14.440;2022-09-19T11:41:10;8.10;99.90
41592;DHT22;28026;48.562;14.440;2022-09-19T11:47:20;8.20;99.90
41592;DHT22;28026;48.562;14.440;2022-09-19T11:50:20;8.20;99.90
41592;DHT22;28026;48.562;14.440;2022-09-19T11:59:09;8.30;99.90
41592;DHT22;28026;48.562;14.440;2022-09-19T12:10:50;8.50;99.90
41592;DHT22;28026;48.562;14.440;2022-09-19T12:13:53;8.80;99.90
41592;DHT22;28026;48.562;14.440;2022-09-19T12:16:41;8.80;99.90
41592;DHT22;28026;48.562;14.440;2022-09-19T12:19:22;8.60;99.90
41592;DHT22;28026;48.562;14.440;2022-09-19T12:22:01;8.50;99.90
41592;DHT22;28026;48.562;14.440;2022-09-19T12:30:46;8.60;99.90
41592;DHT22;28026;48.562;14.440;2022-09-19T12:36:25;8.40;99.90
41592;DHT22;28026;48.562;14.440;2022-09-19T12:45:04;8.60;99.90
41592;DHT22;28026;48.562;14.440;2022-09-19T12:50:58;8.50;99.90
41592;DHT22;28026;48.562;14.440;2022-09-19T12:53:44;8.50;99.90
41592;DHT22;28026;48.562;14.440;2022-09-19T12:56:36;8.50;99.90
41592;DHT22;28026;48.562;14.440;2022-09-19T12:59:20;8.60;99.90
41592;DHT22;28026;48.562;14.440;2022-09-19T13:01:55;8.70;99.90
41592;DHT22;28026;48.562;14.440;2022-09-19T13:04:35;8.60;99.90
41592;DHT22;28026;48.562;14.440;2022-09-19T13:07:47;8.60;99.90
41592;DHT22;28026;48.562;14.440;2022-09-19T13:13:15;8.70;99.90
41592;DHT22;28026;48.562;14.440;2022-09-19T13:16:02;9.00;99.90
41592;DHT22;28026;48.562;14.440;2022-09-19T13:18:42;8.60;99.90
41592;DHT22;28026;48.562;14.440;2022-09-19T13:21:45;8.50;99.90
41592;DHT22;28026;48.562;14.440;2022-09-19T13:24:52;8.70;99.90
41592;DHT22;28026;48.562;14.440;2022-09-19T13:27:28;8.80;99.90
41592;DHT22;28026;48.562;14.440;2022-09-19T13:30:01;8.80;99.90
41592;DHT22;28026;48.562;14.440;2022-09-19T13:35:28;8.80;99.90
41592;DHT22;28026;48.562;14.440;2022-09-19T13:38:23;8.80;99.90
41592;DHT22;28026;48.562;14.440;2022-09-19T13:41:15;8.70;99.90
41592;DHT22;28026;48.562;14.440;2022-09-19T13:46:56;8.80;99.90
41592;DHT22;28026;48.562;14.440;2022-09-19T13:49:56;8.90;99.90
41592;DHT22;28026;48.562;14.440;2022-09-19T13:52:37;9.00;99.90
41592;DHT22;28026;48.562;14.440;2022-09-19T13:55:18;9.00;99.90
41592;DHT22;28026;48.562;14.440;2022-09-19T14:01:04;9.10;99.90
41592;DHT22;28026;48.562;14.440;2022-09-19T14:03:56;9.20;99.90
41592;DHT22;28026;48.562;14.440;2022-09-19T14:06:56;9.20;99.90
41592;DHT22;28026;48.562;14.440;2022-09-19T14:09:34;9.40;99.90
41592;DHT22;28026;48.562;14.440;2022-09-19T14:21:02;9.60;99.90
41592;DHT22;28026;48.562;14.440;2022-09-19T14:23:43;9.20;99.90
41592;DHT22;28026;48.562;14.440;2022-09-19T14:29:24;9.00;99.90
41592;DHT22;28026;48.562;14.440;2022-09-19T14:38:35;9.10;99.90
41592;DHT22;28026;48.562;14.440;2022-09-19T14:47:41;9.10;99.90
41592;DHT22;28026;48.562;14.440;2022-09-19T14:53:07;9.00;99.90
41592;DHT22;28026;48.562;14.440;2022-09-19T14:55:56;9.10;99.90
41592;DHT22;28026;48.562;14.440;2022-09-19T14:58:32;9.30;99.90
41592;DHT22;28026;48.562;14.440;2022-09-19T15:01:10;9.30;99.90
41592;DHT22;28026;48.562;14.440;2022-09-19T15:04:01;9.20;99.90
41592;DHT22;28026;48.562;14.440;2022-09-19T15:06:51;9.10;99.90
41592;DHT22;28026;48.562;14.440;2022-09-19T15:09:28;9.00;99.90
41592;DHT22;28026;48.562;14.440;2022-09-19T15:12:19;9.10;99.90
41592;DHT22;28026;48.562;14.440;2022-09-19T15:14:54;9.60;99.90
41592;DHT22;28026;48.562;14.440;2022-09-19T15:17:32;10.10;99.90
41592;DHT22;28026;48.562;14.440;2022-09-19T15:22:39;10.40;99.90
41592;DHT22;28026;48.562;14.440;2022-09-19T15:25:26;10.60;99.90
41592;DHT22;28026;48.562;14.440;2022-09-19T15:28:00;10.50;99.90
41592;DHT22;28026;48.562;14.440;2022-09-19T15:30:34;10.60;99.90
41592;DHT22;28026;48.562;14.440;2022-09-19T15:33:09;10.10;99.90
41592;DHT22;28026;48.562;14.440;2022-09-19T15:35:42;10.10;99.90
41592;DHT22;28026;48.562;14.440;2022-09-19T15:38:18;9.80;99.90
41592;DHT22;28026;48.562;14.440;2022-09-19T15:41:00;9.50;99.90
41592;DHT22;28026;48.562;14.440;2022-09-19T15:43:37;9.40;99.90
41592;DHT22;28026;48.562;14.440;2022-09-19T15:49:03;9.10;99.90
41592;DHT22;28026;48.562;14.440;2022-09-19T15:51:56;9.20;99.90
41592;DHT22;28026;48.562;14.440;2022-09-19T15:54:33;9.10;99.90
41592;DHT22;28026;48.562;14.440;2022-09-19T16:00:17;9.00;99.90
41592;DHT22;28026;48.562;14.440;2022-09-19T16:03:02;9.20;99.90
41592;DHT22;28026;48.562;14.440;2022-09-19T16:05:36;9.20;99.90
41592;DHT22;28026;48.562;14.440;2022-09-19T16:08:28;9.40;99.90
41592;DHT22;28026;48.562;14.440;2022-09-19T16:11:34;9.40;99.90
41592;DHT22;28026;48.562;14.440;2022-09-19T16:14:18;9.30;99.90
41592;DHT22;28026;48.562;14.440;2022-09-19T16:16:56;9.20;99.90
41592;DHT22;28026;48.562;14.440;2022-09-19T16:22:01;9.00;99.90
41592;DHT22;28026;48.562;14.440;2022-09-19T16:24:39;9.00;99.90
41592;DHT22;28026;48.562;14.440;2022-09-19T16:27:21;8.90;99.90
41592;DHT22;28026;48.562;14.440;2022-09-19T16:29:55;8.90;99.90
41592;DHT22;28026;48.562;14.440;2022-09-19T16:32:32;8.80;99.90
41592;DHT22;28026;48.562;14.440;2022-09-19T16:35:04;8.80;99.90
41592;DHT22;28026;48.562;14.440;2022-09-19T16:37:36;8.70;99.90
41592;DHT22;28026;48.562;14.440;2022-09-19T16:40:20;8.60;99.90
41592;DHT22;28026;48.562;14.440;2022-09-19T16:42:59;8.60;99.90
41592;DHT22;28026;48.562;14.440;2022-09-19T16:45:50;8.50;99.90
41592;DHT22;28026;48.562;14.440;2022-09-19T16:48:21;8.50;99.90
41592;DHT22;28026;48.562;14.440;2022-09-19T16:50:54;8.40;99.90
41592;DHT22;28026;48.562;14.440;2022-09-19T16:53:26;8.40;99.90
41592;DHT22;28026;48.562;14.440;2022-09-19T16:55:58;8.40;99.90
41592;DHT22;28026;48.562;14.440;2022-09-19T16:58:30;8.30;99.90
41592;DHT22;28026;48.562;14.440;2022-09-19T17:01:01;8.30;99.90
41592;DHT22;28026;48.562;14.440;2022-09-19T17:03:32;8.30;99.90
41592;DHT22;28026;48.562;14.440;2022-09-19T17:06:02;8.20;99.90
41592;DHT22;28026;48.562;14.440;2022-09-19T17:08:36;8.10;99.90
41592;DHT22;28026;48.562;14.440;2022-09-19T17:11:06;8.00;99.90
41592;DHT22;28026;48.562;14.440;2022-09-19T17:13:39;7.90;99.90
41592;DHT22;28026;48.562;14.440;2022-09-19T17:16:10;7.90;99.90
41592;DHT22;28026;48.562;14.440;2022-09-19T17:18:44;7.90;99.90
41592;DHT22;28026;48.562;14.440;2022-09-19T17:21:15;7.90;99.90
41592;DHT22;28026;48.562;14.440;2022-09-19T17:23:47;7.90;99.90
41592;DHT22;28026;48.562;14.440;2022-09-19T17:26:18;7.80;99.90
41592;DHT22;28026;48.562;14.440;2022-09-19T17:28:48;7.80;99.90
41592;DHT22;28026;48.562;14.440;2022-09-19T17:31:19;7.80;99.90
41592;DHT22;28026;48.562;14.440;2022-09-19T17:33:54;7.80;99.90
41592;DHT22;28026;48.562;14.440;2022-09-19T17:36:25;7.80;99.90
41592;DHT22;28026;48.562;14.440;2022-09-19T17:38:56;7.80;99.90
41592;DHT22;28026;48.562;14.440;2022-09-19T17:41:27;7.80;99.90
41592;DHT22;28026;48.562;14.440;2022-09-19T17:43:58;7.80;99.90
41592;DHT22;28026;48.562;14.440;2022-09-19T17:46:29;7.70;99.90
41592;DHT22;28026;48.562;14.440;2022-09-19T17:48:59;7.70;99.90
41592;DHT22;28026;48.562;14.440;2022-09-19T17:51:30;7.70;99.90
41592;DHT22;28026;48.562;14.440;2022-09-19T17:54:01;7.70;99.90
41592;DHT22;28026;48.562;14.440;2022-09-19T17:56:32;7.70;99.90
41592;DHT22;28026;48.562;14.440;2022-09-19T17:59:03;7.60;99.90
41592;DHT22;28026;48.562;14.440;2022-09-19T18:01:34;7.70;99.90
41592;DHT22;28026;48.562;14.440;2022-09-19T18:04:23;7.70;99.90
41592;DHT22;28026;48.562;14.440;2022-09-19T18:06:54;7.70;99.90
41592;DHT22;28026;48.562;14.440;2022-09-19T18:09:25;7.70;99.90
41592;DHT22;28026;48.562;14.440;2022-09-19T18:11:56;7.80;99.90
41592;DHT22;28026;48.562;14.440;2022-09-19T18:14:27;7.80;99.90
41592;DHT22;28026;48.562;14.440;2022-09-19T18:16:57;7.80;99.90
41592;DHT22;28026;48.562;14.440;2022-09-19T18:19:28;7.90;99.90
41592;DHT22;28026;48.562;14.440;2022-09-19T18:22:01;7.80;99.90
41592;DHT22;28026;48.562;14.440;2022-09-19T18:24:34;7.90;99.90
41592;DHT22;28026;48.562;14.440;2022-09-19T18:27:05;7.90;99.90
41592;DHT22;28026;48.562;14.440;2022-09-19T18:29:36;7.80;99.90
41592;DHT22;28026;48.562;14.440;2022-09-19T18:32:07;7.90;99.90
41592;DHT22;28026;48.562;14.440;2022-09-19T18:34:39;7.90;99.90
41592;DHT22;28026;48.562;14.440;2022-09-19T18:37:09;7.90;99.90
41592;DHT22;28026;48.562;14.440;2022-09-19T18:39:40;7.90;99.90
41592;DHT22;28026;48.562;14.440;2022-09-19T18:42:11;7.90;99.90
41592;DHT22;28026;48.562;14.440;2022-09-19T18:44:42;7.90;99.90
41592;DHT22;28026;48.562;14.440;2022-09-19T18:47:13;8.00;99.90
41592;DHT22;28026;48.562;14.440;2022-09-19T18:49:44;8.00;99.90
41592;DHT22;28026;48.562;14.440;2022-09-19T18:52:15;8.10;99.90
41592;DHT22;28026;48.562;14.440;2022-09-19T18:54:46;8.20;99.90
41592;DHT22;28026;48.562;14.440;2022-09-19T18:57:17;8.20;99.90
41592;DHT22;28026;48.562;14.440;2022-09-19T18:59:48;8.10;99.90
41592;DHT22;28026;48.562;14.440;2022-09-19T19:02:19;8.10;99.90
41592;DHT22;28026;48.562;14.440;2022-09-19T19:04:51;8.10;99.90
41592;DHT22;28026;48.562;14.440;2022-09-19T19:07:22;8.10;99.90
41592;DHT22;28026;48.562;14.440;2022-09-19T19:09:53;7.90;99.90
41592;DHT22;28026;48.562;14.440;2022-09-19T19:12:23;7.90;99.90
41592;DHT22;28026;48.562;14.440;2022-09-19T19:14:54;7.90;99.90
41592;DHT22;28026;48.562;14.440;2022-09-19T19:17:26;7.90;99.90
41592;DHT22;28026;48.562;14.440;2022-09-19T19:19:57;7.90;99.90
41592;DHT22;28026;48.562;14.440;2022-09-19T19:22:27;7.90;99.90
41592;DHT22;28026;48.562;14.440;2022-09-19T19:24:58;7.90;99.90
41592;DHT22;28026;48.562;14.440;2022-09-19T19:27:29;7.90;99.90
41592;DHT22;28026;48.562;14.440;2022-09-19T19:30:00;7.90;99.90
41592;DHT22;28026;48.562;14.440;2022-09-19T19:32:31;7.80;99.90